Time;durP1;ratioP1;P1;durP2;ratioP2;P2;SDS_P1;SDS_P2;PMS_P1;PMS_P2;Temp;Humidity;BMP_temperature;BMP_pressure;BME280_temperature;BME280_humidity;BME280_pressure;Samples;Min_cycle;Max_cycle;Signal;HPM_P1;HPM_P2
2023/08/28 00:00:58;;;;;;;2.90;1.70;;;;;;;18.82;81.98;99994.97;2082230;28;20038;-75
2023/08/28 00:02:03;;;;;;;2.67;1.88;;;;;;;18.82;81.93;99991.44;2081853;28;20833;-75
2023/08/28 00:03:05;;;;;;;3.20;1.83;;;;;;;18.82;82.04;100002.34;2075187;28;20030;-76
2023/08/28 00:04:09;;;;;;;4.80;2.03;;;;;;;18.81;82.25;100006.19;2074788;28;20117;-75
2023/08/28 00:05:14;;;;;;;3.42;1.63;;;;;;;18.81;82.04;100004.28;2066812;28;20031;-75
2023/08/28 00:06:15;;;;;;;3.00;1.63;;;;;;;18.81;82.04;100011.66;2059068;28;20035;-75
2023/08/28 00:07:19;;;;;;;3.65;1.85;;;;;;;18.81;82.23;100006.19;2066327;28;20035;-75
2023/08/28 00:08:21;;;;;;;5.07;1.73;;;;;;;18.81;82.06;100008.94;2052460;28;20043;-75
2023/08/28 00:09:25;;;;;;;2.65;1.73;;;;;;;18.81;82.14;100006.19;2050656;28;20044;-75
2023/08/28 00:10:31;;;;;;;4.72;2.83;;;;;;;18.81;82.03;100014.38;2068006;28;20161;-74
2023/08/28 00:11:35;;;;;;;2.97;1.65;;;;;;;18.82;82.04;100022.22;2067030;28;20039;-75
2023/08/28 00:12:40;;;;;;;4.20;1.50;;;;;;;18.81;81.82;100015.16;2066748;28;20085;-75
2023/08/28 00:13:42;;;;;;;2.75;1.67;;;;;;;18.80;81.82;100012.81;2068080;28;20273;-74
2023/08/28 00:14:46;;;;;;;3.20;1.77;;;;;;;18.83;82.10;100012.09;2070284;28;20169;-75
2023/08/28 00:15:49;;;;;;;3.92;1.90;;;;;;;18.82;81.98;100016.75;2063651;28;20875;-75
2023/08/28 00:16:50;;;;;;;2.63;1.60;;;;;;;18.83;81.86;100017.56;2077008;28;20045;-75
2023/08/28 00:17:52;;;;;;;2.58;1.70;;;;;;;18.84;81.98;100019.13;2087329;28;20038;-75
2023/08/28 00:18:55;;;;;;;2.08;1.60;;;;;;;18.83;82.04;100009.38;2088469;28;20040;-75
2023/08/28 00:19:57;;;;;;;2.78;1.80;;;;;;;18.84;81.90;100013.69;2087436;28;20135;-75
2023/08/28 00:21:00;;;;;;;3.47;1.83;;;;;;;18.83;81.91;100012.91;2088883;28;20129;-75
2023/08/28 00:22:02;;;;;;;2.60;1.65;;;;;;;18.84;82.04;100016.41;2069587;28;20042;-75
2023/08/28 00:23:05;;;;;;;3.50;1.80;;;;;;;18.82;82.08;100016.75;2071963;28;20034;-75
2023/08/28 00:24:08;;;;;;;3.58;2.20;;;;;;;18.79;82.01;100019.38;2087382;28;20116;-75
2023/08/28 00:25:17;;;;;;;2.67;2.00;;;;;;;18.80;82.26;100019.03;2080520;28;20030;-75
2023/08/28 00:26:18;;;;;;;3.35;2.20;;;;;;;18.80;82.26;100023.69;2091541;28;20021;-76
2023/08/28 00:27:20;;;;;;;2.47;1.85;;;;;;;18.79;82.12;100022.09;2081612;28;20160;-76
2023/08/28 00:28:22;;;;;;;2.83;1.63;;;;;;;18.78;82.22;100026.75;2064993;28;20079;-76
2023/08/28 00:29:27;;;;;;;2.47;1.70;;;;;;;18.80;82.19;100034.59;2066351;28;20045;-76
2023/08/28 00:30:30;;;;;;;3.17;1.98;;;;;;;18.79;82.27;100036.53;2075430;28;20034;-83
2023/08/28 00:31:32;;;;;;;3.92;1.75;;;;;;;18.81;82.16;100036.16;2074390;28;20093;-82
2023/08/28 00:32:38;;;;;;;2.92;2.00;;;;;;;18.79;82.18;100032.97;2065514;28;20733;-80
2023/08/28 00:33:40;;;;;;;2.85;1.73;;;;;;;18.78;82.18;100031.41;2075551;28;20042;-82
2023/08/28 00:34:41;;;;;;;2.20;1.73;;;;;;;18.79;82.23;100032.97;2074419;28;20805;-80
2023/08/28 00:35:43;;;;;;;1.67;1.52;;;;;;;18.79;82.15;100027.53;2081188;28;20061;-81
2023/08/28 00:36:45;;;;;;;2.35;1.67;;;;;;;18.71;82.21;100029.25;2058309;28;20035;-81
2023/08/28 00:37:49;;;;;;;2.67;1.70;;;;;;;18.69;82.03;100035.03;2058589;28;20038;-81
2023/08/28 00:38:52;;;;;;;1.92;1.67;;;;;;;18.69;81.92;100035.03;2074614;28;20034;-82
2023/08/28 00:39:55;;;;;;;1.60;1.50;;;;;;;18.69;81.93;100024.13;2066326;28;20054;-82
2023/08/28 00:40:59;;;;;;;2.38;1.80;;;;;;;18.68;81.98;100030.72;2066960;28;20984;-81
2023/08/28 00:42:04;;;;;;;2.78;1.65;;;;;;;18.66;81.91;100024.03;2066781;28;20031;-81
2023/08/28 00:43:09;;;;;;;2.30;1.70;;;;;;;18.65;81.98;100028.69;2075308;28;20041;-81
2023/08/28 00:44:11;;;;;;;2.10;1.60;;;;;;;18.64;81.92;100039.94;2074219;28;20070;-81
2023/08/28 00:45:13;;;;;;;2.40;1.88;;;;;;;18.60;82.04;100031.69;2066236;28;20082;-81
2023/08/28 00:46:21;;;;;;;1.98;1.60;;;;;;;18.56;82.03;100041.66;2067749;28;20849;-80
2023/08/28 00:47:23;;;;;;;1.92;1.60;;;;;;;18.57;82.01;100042.44;2066848;28;20034;-80
2023/08/28 00:48:29;;;;;;;3.08;1.77;;;;;;;18.57;82.06;100053.34;2066993;28;20034;-80
2023/08/28 00:49:31;;;;;;;4.28;2.20;;;;;;;18.56;82.01;100052.53;2074756;28;20157;-81
2023/08/28 00:50:35;;;;;;;3.20;1.90;;;;;;;18.56;81.93;100047.09;2074322;28;20038;-80
2023/08/28 00:51:37;;;;;;;2.83;1.77;;;;;;;18.56;82.02;100047.09;2071078;28;20132;-80
2023/08/28 00:52:41;;;;;;;3.13;1.95;;;;;;;18.55;81.98;100056.41;2058185;28;20082;-80
2023/08/28 00:53:43;;;;;;;2.50;2.10;;;;;;;18.55;82.01;100059.13;2050798;28;20048;-81
2023/08/28 00:54:49;;;;;;;2.55;1.63;;;;;;;18.55;81.84;100059.13;2075476;28;20035;-80
2023/08/28 00:55:54;;;;;;;2.28;1.67;;;;;;;18.56;81.80;100062.66;2081603;28;20037;-80
2023/08/28 00:56:59;;;;;;;3.13;2.22;;;;;;;18.55;81.87;100061.06;2058883;28;20839;-78
2023/08/28 00:58:07;;;;;;;3.63;1.85;;;;;;;18.53;81.90;100061.41;2058882;28;20031;-81
2023/08/28 00:59:15;;;;;;;4.28;2.30;;;;;;;18.52;81.69;100057.09;2067255;28;20042;-79
2023/08/28 01:00:18;;;;;;;3.10;1.80;;;;;;;18.52;81.98;100062.53;2058457;28;20039;-79
2023/08/28 01:01:20;;;;;;;2.50;1.80;;;;;;;18.51;81.85;100056.31;2071409;28;20123;-80
2023/08/28 01:02:28;;;;;;;2.92;1.70;;;;;;;18.53;81.82;100064.13;2090176;28;20880;-78
2023/08/28 01:03:33;;;;;;;2.55;1.88;;;;;;;18.48;81.83;100062.44;2083567;28;20155;-81
2023/08/28 01:04:38;;;;;;;2.20;1.60;;;;;;;18.48;81.76;100061.66;2098799;28;20037;-80
2023/08/28 01:06:15;;;;;;;2.65;2.10;;;;;;;18.47;81.80;100060.06;2082527;28;20037;-80
2023/08/28 01:07:25;;;;;;;3.22;1.73;;;;;;;18.48;81.76;100072.53;2058932;28;20853;-80
2023/08/28 01:08:45;;;;;;;2.30;1.52;;;;;;;18.46;81.70;100070.16;2079051;28;20881;-79
2023/08/28 01:10:02;;;;;;;2.67;1.80;;;;;;;18.46;81.73;100074.81;2076690;28;20041;-79
2023/08/28 01:11:38;;;;;;;2.30;1.60;;;;;;;18.46;81.61;100069.38;2076531;28;20136;-80
2023/08/28 01:13:01;;;;;;;2.15;1.70;;;;;;;18.45;81.73;100075.94;2054900;28;20105;-79
2023/08/28 01:14:12;;;;;;;2.30;1.67;;;;;;;18.45;81.70;100073.22;2077420;28;20034;-81
2023/08/28 01:15:21;;;;;;;2.95;1.70;;;;;;;18.47;81.65;100070.94;2067747;28;20039;-76
2023/08/28 01:16:31;;;;;;;2.60;1.73;;;;;;;18.47;81.58;100057.31;2066700;28;20039;-75
2023/08/28 01:17:41;;;;;;;4.15;1.60;;;;;;;18.49;81.65;100057.78;2061059;28;20165;-76
2023/08/28 01:18:45;;;;;;;3.33;1.80;;;;;;;18.48;81.48;100046.09;2059911;28;20096;-75
2023/08/28 01:19:47;;;;;;;2.72;1.88;;;;;;;18.49;81.48;100052.34;2058810;28;21109;-75
2023/08/28 01:20:50;;;;;;;2.15;1.50;;;;;;;18.49;81.51;100046.91;2065975;28;20039;-75
2023/08/28 01:21:57;;;;;;;2.63;1.83;;;;;;;18.49;81.39;100049.63;2066244;28;20821;-74
2023/08/28 01:23:06;;;;;;;3.30;1.60;;;;;;;18.49;81.29;100047.69;2065873;28;20035;-75
2023/08/28 01:24:10;;;;;;;3.78;1.70;;;;;;;18.48;81.39;100045.31;2060116;28;20147;-75
2023/08/28 01:25:12;;;;;;;3.35;1.50;;;;;;;18.47;81.35;100043.72;2074432;28;20038;-76
2023/08/28 01:26:13;;;;;;;1.90;1.70;;;;;;;18.46;81.15;100037.47;2074109;28;20035;-75
2023/08/28 01:27:17;;;;;;;3.22;1.70;;;;;;;18.48;81.07;100039.88;2058053;28;20047;-75
2023/08/28 01:28:21;;;;;;;2.50;2.00;;;;;;;18.49;81.09;100033.28;2058636;28;20039;-76
2023/08/28 01:29:22;;;;;;;2.83;1.85;;;;;;;18.48;80.94;100023.53;2066338;28;20952;-77
2023/08/28 01:30:24;;;;;;;2.58;1.73;;;;;;;18.47;81.00;100020.03;2082655;28;20026;-75
2023/08/28 01:31:27;;;;;;;1.90;1.60;;;;;;;18.48;80.92;100012.66;2082296;28;20041;-75
2023/08/28 01:32:31;;;;;;;2.13;1.60;;;;;;;18.48;80.83;100012.66;2058888;28;20122;-75
2023/08/28 01:33:36;;;;;;;2.55;1.60;;;;;;;18.47;80.98;100013.78;2066435;28;20058;-76
2023/08/28 01:34:42;;;;;;;6.07;2.10;;;;;;;18.47;81.00;100005.59;2083170;28;20029;-77
2023/08/28 01:35:58;;;;;;;1.83;1.50;;;;;;;18.46;80.93;99995.88;2074285;28;20042;-77
2023/08/28 01:37:08;;;;;;;2.38;1.70;;;;;;;18.47;80.89;100000.16;2068892;28;20030;-76
2023/08/28 01:38:19;;;;;;;2.25;1.55;;;;;;;18.47;80.90;100005.59;2075014;28;20042;-76
2023/08/28 01:39:32;;;;;;;2.63;1.77;;;;;;;18.46;81.05;99999.38;2075520;28;20964;-76
2023/08/28 01:40:44;;;;;;;2.83;1.70;;;;;;;18.47;80.97;99992.00;2084124;28;20062;-76
2023/08/28 01:41:50;;;;;;;3.30;2.08;;;;;;;18.46;81.09;99993.13;2075198;28;20141;-76
2023/08/28 01:42:57;;;;;;;3.30;1.80;;;;;;;18.46;81.19;99983.03;2067520;28;20041;-77
2023/08/28 01:44:03;;;;;;;2.97;1.88;;;;;;;18.45;81.17;99976.03;2066323;28;20897;-77
2023/08/28 01:45:06;;;;;;;2.72;1.70;;;;;;;18.47;80.93;99972.94;2067356;28;20866;-77
2023/08/28 01:46:09;;;;;;;2.95;1.70;;;;;;;18.47;80.94;99973.75;2065678;28;20960;-77
2023/08/28 01:47:13;;;;;;;3.00;2.00;;;;;;;18.47;80.95;99978.38;2074070;28;20127;-76
2023/08/28 01:48:19;;;;;;;2.13;1.65;;;;;;;18.46;80.92;99982.25;2091145;28;20144;-76
2023/08/28 01:49:26;;;;;;;3.95;1.95;;;;;;;18.46;81.04;99969.44;2073831;28;20034;-76
2023/08/28 01:50:29;;;;;;;1.90;1.60;;;;;;;18.45;81.08;99973.31;2074555;28;20039;-75
2023/08/28 01:51:31;;;;;;;4.07;1.60;;;;;;;18.44;80.90;99968.19;2068913;28;20149;-75
2023/08/28 01:52:33;;;;;;;3.15;1.60;;;;;;;18.43;81.00;99958.44;2057252;28;20043;-75
2023/08/28 01:53:38;;;;;;;2.22;1.90;;;;;;;18.45;80.77;99967.84;2074840;28;20046;-75
2023/08/28 01:54:42;;;;;;;3.40;1.85;;;;;;;18.45;80.96;99958.91;2071917;28;20038;-75
2023/08/28 01:55:46;;;;;;;3.38;1.80;;;;;;;18.45;80.91;99956.19;2066365;28;20039;-75
2023/08/28 01:56:50;;;;;;;2.47;1.92;;;;;;;18.44;81.01;99954.56;2057656;28;20047;-75
2023/08/28 01:57:52;;;;;;;2.58;1.92;;;;;;;18.44;80.94;99951.84;2058468;28;20052;-74
2023/08/28 01:58:57;;;;;;;2.97;1.70;;;;;;;18.44;81.10;99951.84;2073615;28;20137;-75
2023/08/28 01:59:59;;;;;;;1.98;1.77;;;;;;;18.43;81.10;99953.00;2065383;28;20038;-74
2023/08/28 02:01:01;;;;;;;2.17;1.70;;;;;;;18.43;81.18;99961.97;2057560;28;20043;-75
2023/08/28 02:02:05;;;;;;;2.40;2.00;;;;;;;18.43;81.09;99958.44;2057692;28;20028;-77
2023/08/28 02:03:09;;;;;;;3.25;1.90;;;;;;;18.41;81.23;99966.97;2065954;28;20845;-76
2023/08/28 02:04:14;;;;;;;4.20;1.95;;;;;;;18.41;81.24;99974.31;2058273;28;20198;-76
2023/08/28 02:05:17;;;;;;;2.88;1.85;;;;;;;18.40;81.16;99967.31;2058011;28;20035;-76
2023/08/28 02:06:25;;;;;;;3.00;1.75;;;;;;;18.38;81.28;99972.28;2066989;28;20045;-76
2023/08/28 02:07:29;;;;;;;2.50;1.90;;;;;;;18.40;81.09;99980.91;2089994;28;20044;-76
2023/08/28 02:08:33;;;;;;;2.97;1.70;;;;;;;18.41;81.11;99979.75;2076348;28;20041;-76
2023/08/28 02:09:36;;;;;;;2.13;1.75;;;;;;;18.40;80.99;99989.06;2065805;28;20107;-75
2023/08/28 02:10:37;;;;;;;1.98;1.75;;;;;;;18.40;80.88;99989.06;2074139;28;20035;-76
2023/08/28 02:11:40;;;;;;;2.10;1.80;;;;;;;18.39;81.07;99988.28;2073530;28;20068;-76
2023/08/28 02:12:43;;;;;;;4.82;1.80;;;;;;;18.39;81.01;99998.38;2082469;28;20033;-76
2023/08/28 02:13:46;;;;;;;2.25;2.00;;;;;;;18.38;80.89;100002.22;2081410;28;20080;-76
2023/08/28 02:14:49;;;;;;;2.83;1.80;;;;;;;18.38;81.04;100003.03;2074105;28;20146;-76
2023/08/28 02:15:52;;;;;;;3.63;1.90;;;;;;;18.36;81.06;100005.31;2073643;28;20145;-77
2023/08/28 02:16:56;;;;;;;2.70;1.92;;;;;;;18.36;81.06;100016.19;2073821;28;20038;-75
2023/08/28 02:18:00;;;;;;;3.35;2.40;;;;;;;18.34;81.18;100017.66;2073967;28;20030;-75
2023/08/28 02:19:04;;;;;;;3.58;2.22;;;;;;;18.33;81.27;100016.09;2073880;28;20081;-75
2023/08/28 02:20:11;;;;;;;3.17;2.00;;;;;;;18.29;81.20;100016.78;2074770;28;20041;-75
2023/08/28 02:21:17;;;;;;;2.88;1.90;;;;;;;18.30;81.27;100015.63;2081763;28;20034;-75
2023/08/28 02:22:20;;;;;;;3.42;2.00;;;;;;;18.29;81.20;100013.28;2065300;28;20906;-75
2023/08/28 02:23:22;;;;;;;3.45;2.15;;;;;;;18.28;81.19;100004.31;2073881;28;20039;-75
2023/08/28 02:24:28;;;;;;;6.60;1.83;;;;;;;18.28;81.43;100009.75;2065188;28;20039;-75
2023/08/28 02:25:30;;;;;;;2.67;1.85;;;;;;;18.28;81.42;100009.75;2067135;28;20806;-75
2023/08/28 02:26:32;;;;;;;3.08;2.10;;;;;;;18.29;81.40;100016.78;2065504;28;20045;-76
2023/08/28 02:27:35;;;;;;;3.15;1.92;;;;;;;18.27;81.31;100029.94;2057776;28;20039;-75
2023/08/28 02:28:37;;;;;;;3.22;2.03;;;;;;;18.26;81.28;100038.44;2074068;28;20066;-75
2023/08/28 02:29:40;;;;;;;2.20;1.92;;;;;;;18.24;81.44;100036.06;2073831;28;20765;-80
2023/08/28 02:30:47;;;;;;;3.05;1.95;;;;;;;18.25;81.04;100037.66;2075337;28;20975;-75
2023/08/28 02:31:49;;;;;;;2.08;1.88;;;;;;;18.24;81.34;100030.59;2073533;28;20042;-75
2023/08/28 02:32:51;;;;;;;6.88;1.92;;;;;;;18.22;81.40;100027.47;2065565;28;20058;-75
2023/08/28 02:33:53;;;;;;;3.08;2.10;;;;;;;18.20;81.58;100028.94;2073610;28;20658;-75
2023/08/28 02:34:55;;;;;;;2.15;1.65;;;;;;;18.17;81.52;100022.25;2057671;28;20043;-75
2023/08/28 02:36:01;;;;;;;3.60;1.98;;;;;;;18.18;81.66;100028.47;2057897;28;21307;-75
2023/08/28 02:37:03;;;;;;;2.70;1.90;;;;;;;18.18;81.66;100036.63;2066680;28;20058;-75
2023/08/28 02:38:09;;;;;;;2.67;2.03;;;;;;;18.17;81.59;100041.28;2058137;28;20074;-76
2023/08/28 02:39:13;;;;;;;2.88;1.63;;;;;;;18.17;81.63;100046.72;2051598;28;20044;-75
2023/08/28 02:40:15;;;;;;;3.72;1.90;;;;;;;18.18;81.64;100053.75;2058603;28;20035;-75
2023/08/28 02:41:18;;;;;;;3.00;2.10;;;;;;;18.18;81.74;100061.13;2057295;28;20047;-75
2023/08/28 02:42:31;;;;;;;3.22;1.90;;;;;;;18.16;81.56;100055.22;2061142;28;20039;-75
2023/08/28 02:43:34;;;;;;;3.05;1.48;;;;;;;18.15;81.71;100042.75;2074216;28;20042;-74
2023/08/28 02:44:37;;;;;;;2.35;1.73;;;;;;;18.15;81.74;100035.38;2065431;28;20835;-75
2023/08/28 02:45:41;;;;;;;2.75;1.95;;;;;;;18.15;81.69;100040.81;2066410;28;20050;-75
2023/08/28 02:46:43;;;;;;;2.72;1.80;;;;;;;18.17;81.76;100041.28;2073153;28;20782;-75
2023/08/28 02:47:47;;;;;;;2.50;1.90;;;;;;;18.16;81.93;100034.28;2073587;28;20832;-75
2023/08/28 02:48:51;;;;;;;3.03;2.00;;;;;;;18.17;81.79;100035.84;2066177;28;20046;-75
2023/08/28 02:49:53;;;;;;;2.30;1.83;;;;;;;18.16;81.82;100028.81;2073882;28;20042;-75
2023/08/28 02:51:00;;;;;;;4.05;2.20;;;;;;;18.18;81.77;100031.19;2065553;28;20035;-75
2023/08/28 02:52:02;;;;;;;3.47;2.30;;;;;;;18.18;81.82;100026.53;2059093;28;20886;-74
2023/08/28 02:53:04;;;;;;;2.97;1.73;;;;;;;18.19;81.89;100028.13;2065595;28;20031;-75
2023/08/28 02:54:10;;;;;;;4.10;2.00;;;;;;;18.20;81.87;100029.72;2074059;28;20857;-74
2023/08/28 02:55:12;;;;;;;3.90;1.92;;;;;;;18.19;81.85;100022.69;2080677;28;20033;-76
2023/08/28 02:56:25;;;;;;;2.72;1.70;;;;;;;18.19;81.95;100028.13;2049166;28;20075;-75
2023/08/28 02:57:30;;;;;;;2.03;1.63;;;;;;;18.20;81.82;100027.00;2063098;28;20027;-75
2023/08/28 02:58:33;;;;;;;2.45;1.77;;;;;;;18.20;82.00;100034.38;2073710;28;20092;-75
2023/08/28 02:59:40;;;;;;;3.20;2.03;;;;;;;18.19;81.89;100025.41;2066249;28;20027;-75
2023/08/28 03:00:45;;;;;;;2.40;1.70;;;;;;;18.19;81.82;100021.88;2058627;28;20074;-75
2023/08/28 03:01:49;;;;;;;2.75;1.80;;;;;;;18.20;81.91;100024.28;2058516;28;20046;-75
2023/08/28 03:02:51;;;;;;;2.70;1.60;;;;;;;18.19;81.85;100022.69;2081981;28;20045;-76
2023/08/28 03:03:53;;;;;;;2.78;1.90;;;;;;;18.19;81.93;100017.25;2081510;28;20816;-76
2023/08/28 03:04:57;;;;;;;1.63;1.50;;;;;;;18.19;81.88;100017.25;2082071;28;20045;-76
2023/08/28 03:05:59;;;;;;;3.20;1.60;;;;;;;18.21;81.91;100035.94;2081360;28;20172;-76
2023/08/28 03:07:07;;;;;;;4.45;1.73;;;;;;;18.20;81.95;100029.72;2057218;28;20027;-75
2023/08/28 03:08:09;;;;;;;3.95;1.80;;;;;;;18.20;81.84;100045.25;2066416;28;20039;-76
2023/08/28 03:09:12;;;;;;;2.08;1.58;;;;;;;18.20;81.97;100039.81;2065270;28;20046;-76
2023/08/28 03:10:14;;;;;;;3.38;1.58;;;;;;;18.20;81.87;100040.59;2049401;28;20075;-75
2023/08/28 03:11:16;;;;;;;1.95;1.65;;;;;;;18.19;81.75;100044.47;2073957;28;20038;-76
2023/08/28 03:12:20;;;;;;;2.72;1.60;;;;;;;18.19;81.84;100033.59;2081137;28;20022;-76
2023/08/28 03:13:25;;;;;;;1.80;1.52;;;;;;;18.20;81.87;100032.44;2065708;28;20081;-76
2023/08/28 03:14:27;;;;;;;1.80;1.50;;;;;;;18.19;81.83;100035.47;2066526;28;20177;-76
2023/08/28 03:15:32;;;;;;;5.97;1.73;;;;;;;18.18;81.67;100026.53;2073820;28;20034;-76
2023/08/28 03:16:33;;;;;;;2.85;1.70;;;;;;;18.19;81.79;100014.53;2065155;28;20914;-76
2023/08/28 03:17:35;;;;;;;2.97;1.83;;;;;;;18.20;81.87;100012.59;2065278;28;20829;-76
2023/08/28 03:18:39;;;;;;;2.78;1.70;;;;;;;18.19;81.92;100017.25;2073638;28;20061;-76
2023/08/28 03:19:42;;;;;;;2.55;1.70;;;;;;;18.20;81.86;100023.50;2073873;28;20041;-76
2023/08/28 03:20:45;;;;;;;2.13;1.70;;;;;;;18.19;81.80;100028.13;2065307;28;20082;-76
2023/08/28 03:21:48;;;;;;;2.03;1.65;;;;;;;18.21;81.85;100030.50;2074083;28;20030;-76
2023/08/28 03:22:52;;;;;;;6.63;2.38;;;;;;;18.20;81.83;100032.44;2073310;28;20077;-76
2023/08/28 03:23:56;;;;;;;1.75;1.52;;;;;;;18.20;81.81;100027.00;2074020;28;20113;-76
2023/08/28 03:24:58;;;;;;;2.25;1.77;;;;;;;18.20;81.83;100013.38;2065057;28;20039;-76
2023/08/28 03:25:59;;;;;;;2.47;2.15;;;;;;;18.20;81.81;100024.28;2072743;28;20172;-76
2023/08/28 03:27:04;;;;;;;3.08;1.65;;;;;;;18.20;81.77;100018.84;2081877;28;20120;-76
2023/08/28 03:28:07;;;;;;;2.97;1.73;;;;;;;18.20;81.61;100018.84;2073425;28;20898;-76
2023/08/28 03:29:13;;;;;;;2.30;1.67;;;;;;;18.19;81.61;100027.31;2074087;28;20039;-76
2023/08/28 03:30:15;;;;;;;1.67;1.58;;;;;;;18.19;81.52;100032.75;2081480;28;20034;-76
2023/08/28 03:31:20;;;;;;;2.38;1.92;;;;;;;18.18;81.58;100031.19;2082045;28;20903;-76
2023/08/28 03:32:22;;;;;;;2.72;1.80;;;;;;;18.16;81.71;100028.00;2073284;28;20041;-76
2023/08/28 03:33:24;;;;;;;2.35;1.60;;;;;;;18.16;81.62;100022.56;2065446;28;20042;-76
2023/08/28 03:34:27;;;;;;;2.40;1.70;;;;;;;18.14;81.56;100014.75;2089861;28;20144;-77
2023/08/28 03:35:32;;;;;;;2.58;1.90;;;;;;;18.14;81.72;100014.75;2080500;28;20131;-77
2023/08/28 03:36:36;;;;;;;4.97;2.42;;;;;;;18.14;81.80;100016.69;2065830;28;20042;-75
2023/08/28 03:37:37;;;;;;;2.92;1.90;;;;;;;18.14;81.73;100020.19;2073665;28;20380;-76
2023/08/28 03:38:39;;;;;;;2.75;2.00;;;;;;;18.12;81.65;100025.19;2089347;28;20044;-75
2023/08/28 03:39:41;;;;;;;4.97;1.77;;;;;;;18.13;81.88;100018.63;2081354;28;20038;-75
2023/08/28 03:40:44;;;;;;;3.15;1.73;;;;;;;18.12;81.92;100027.13;2065390;28;20043;-75
2023/08/28 03:41:46;;;;;;;3.80;2.03;;;;;;;18.11;81.86;100026.31;2073682;28;20042;-75
2023/08/28 03:42:50;;;;;;;3.58;1.70;;;;;;;18.10;82.07;100016.59;2065196;28;20046;-76
2023/08/28 03:43:52;;;;;;;5.25;1.67;;;;;;;18.11;82.09;100015.44;2074116;28;20050;-75
2023/08/28 03:44:55;;;;;;;3.53;1.95;;;;;;;18.10;82.05;100013.88;2073365;28;20073;-75
2023/08/28 03:45:56;;;;;;;5.25;1.88;;;;;;;18.10;82.08;100008.44;2073326;28;20030;-75
2023/08/28 03:46:58;;;;;;;3.15;1.70;;;;;;;18.09;82.03;100011.47;2081514;28;21395;-75
2023/08/28 03:48:00;;;;;;;4.18;1.80;;;;;;;18.10;81.90;100011.16;2073614;28;20060;-75
2023/08/28 03:49:04;;;;;;;2.15;1.55;;;;;;;18.10;81.87;100019.31;2065249;28;20042;-75
2023/08/28 03:50:12;;;;;;;1.90;1.70;;;;;;;18.09;81.81;100014.97;2058549;28;20037;-75
2023/08/28 03:51:13;;;;;;;2.38;1.77;;;;;;;18.10;81.73;100018.53;2059403;28;20174;-76
2023/08/28 03:52:18;;;;;;;3.10;2.00;;;;;;;18.10;81.77;100019.31;2064430;28;20088;-75
2023/08/28 03:53:20;;;;;;;3.08;1.60;;;;;;;18.09;81.70;100020.41;2064857;28;20093;-75
2023/08/28 03:54:28;;;;;;;1.80;1.38;;;;;;;18.10;81.59;100029.41;2057215;28;20046;-75
2023/08/28 03:55:29;;;;;;;2.85;1.70;;;;;;;18.09;81.68;100028.59;2050366;28;20234;-75
2023/08/28 03:56:31;;;;;;;5.13;1.65;;;;;;;18.08;81.68;100029.72;2057303;28;20047;-76
2023/08/28 03:57:36;;;;;;;2.42;1.85;;;;;;;18.09;81.72;100034.03;2073611;28;20030;-76
2023/08/28 03:58:40;;;;;;;2.10;1.73;;;;;;;18.07;81.74;100033.59;2081362;28;20030;-76
2023/08/28 03:59:43;;;;;;;1.80;1.60;;;;;;;18.06;81.57;100030.09;2065007;28;20031;-76
2023/08/28 04:00:45;;;;;;;4.97;2.45;;;;;;;18.06;81.84;100034.72;2065347;28;20034;-76
2023/08/28 04:01:49;;;;;;;2.53;1.65;;;;;;;18.05;81.50;100038.56;2081318;28;20880;-75
2023/08/28 04:02:55;;;;;;;2.08;1.42;;;;;;;18.03;81.88;100030.78;2073161;28;20969;-76
2023/08/28 04:03:57;;;;;;;2.85;1.35;;;;;;;18.04;81.64;100037.78;2066256;28;20031;-76
2023/08/28 04:05:06;;;;;;;2.90;1.70;;;;;;;18.04;81.69;100032.34;2065520;28;20042;-76
2023/08/28 04:06:11;;;;;;;2.03;1.75;;;;;;;18.06;81.68;100031.97;2082266;28;20849;-76
2023/08/28 04:07:24;;;;;;;4.60;1.80;;;;;;;18.03;81.66;100030.78;2081760;28;20228;-76
2023/08/28 04:08:27;;;;;;;2.25;1.80;;;;;;;18.05;81.78;100027.69;2062672;28;20102;-76
2023/08/28 04:09:29;;;;;;;3.90;2.10;;;;;;;18.05;81.49;100027.69;2074598;28;20034;-75
2023/08/28 04:10:31;;;;;;;6.00;3.20;;;;;;;18.05;81.79;100033.13;2074952;28;20046;-75
2023/08/28 04:11:34;;;;;;;5.68;2.65;;;;;;;18.07;81.73;100025.44;2066770;28;20046;-74
2023/08/28 04:12:39;;;;;;;4.40;2.10;;;;;;;18.05;81.61;100027.69;2067064;28;20043;-75
2023/08/28 04:13:41;;;;;;;4.68;2.33;;;;;;;18.05;81.70;100022.25;2058172;28;20043;-77
2023/08/28 04:14:47;;;;;;;2.10;1.90;;;;;;;18.05;81.68;100025.75;2058883;28;20042;-76
2023/08/28 04:15:51;;;;;;;3.92;2.00;;;;;;;18.06;81.61;100034.72;2068500;28;20034;-76
2023/08/28 04:16:53;;;;;;;2.35;1.77;;;;;;;18.06;81.56;100031.97;2065877;28;20041;-76
2023/08/28 04:18:04;;;;;;;8.23;1.85;;;;;;;18.04;81.45;100035.06;2068426;28;20905;-76
2023/08/28 04:19:05;;;;;;;2.85;1.80;;;;;;;18.05;81.40;100041.28;2066248;28;20097;-76
2023/08/28 04:20:27;;;;;;;3.22;1.90;;;;;;;18.04;81.35;100045.16;2066864;28;20087;-75
2023/08/28 04:21:32;;;;;;;4.50;1.90;;;;;;;18.04;81.21;100050.59;2072878;28;20034;-75
2023/08/28 04:22:34;;;;;;;3.95;1.88;;;;;;;18.02;81.15;100050.13;2066579;28;20121;-75
2023/08/28 04:23:43;;;;;;;5.10;1.77;;;;;;;18.02;81.03;100055.56;2066311;28;20031;-75
2023/08/28 04:24:51;;;;;;;3.88;2.00;;;;;;;18.02;81.14;100053.66;2076706;28;20349;-76
2023/08/28 04:25:53;;;;;;;4.45;1.92;;;;;;;18.02;81.16;100059.09;2074151;28;20690;-76
2023/08/28 04:26:57;;;;;;;3.60;2.17;;;;;;;18.02;81.11;100061.81;2066949;28;20761;-76
2023/08/28 04:27:59;;;;;;;3.00;2.17;;;;;;;18.01;81.13;100054.00;2066276;28;20037;-75
2023/08/28 04:29:01;;;;;;;3.10;1.77;;;;;;;18.00;81.04;100057.84;2058554;28;20968;-76
2023/08/28 04:30:09;;;;;;;5.95;1.98;;;;;;;18.00;81.08;100052.38;2075017;28;20157;-76
2023/08/28 04:31:13;;;;;;;4.65;1.98;;;;;;;18.00;81.11;100055.09;2074380;28;20033;-76
2023/08/28 04:32:15;;;;;;;4.63;2.17;;;;;;;17.99;81.02;100053.53;2075216;28;20034;-76
2023/08/28 04:33:17;;;;;;;4.15;2.10;;;;;;;17.97;81.07;100053.88;2066041;28;20047;-77
2023/08/28 04:34:22;;;;;;;5.68;2.15;;;;;;;17.97;80.79;100059.31;2059038;28;20870;-77
2023/08/28 04:35:28;;;;;;;8.90;2.00;;;;;;;17.96;80.87;100057.72;2066878;28;20113;-77
2023/08/28 04:36:34;;;;;;;6.50;2.25;;;;;;;17.94;80.92;100060.00;2058764;28;20142;-76
2023/08/28 04:37:35;;;;;;;4.15;2.05;;;;;;;17.94;80.90;100064.66;2060027;28;20168;-76
2023/08/28 04:38:38;;;;;;;4.13;2.47;;;;;;;17.92;80.86;100067.72;2074433;28;20102;-74
2023/08/28 04:39:39;;;;;;;5.60;2.13;;;;;;;17.91;80.46;100071.56;2074489;28;20037;-75
2023/08/28 04:40:42;;;;;;;4.00;1.90;;;;;;;17.89;80.86;100065.66;2066303;28;20043;-75
2023/08/28 04:41:48;;;;;;;11.18;2.55;;;;;;;17.90;81.13;100066.44;2058739;28;20810;-76
2023/08/28 04:42:54;;;;;;;5.15;1.77;;;;;;;17.89;81.02;100062.16;2066116;28;20039;-75
2023/08/28 04:43:58;;;;;;;6.80;2.05;;;;;;;17.88;81.17;100072.25;2060047;28;20036;-75
2023/08/28 04:45:00;;;;;;;3.70;2.00;;;;;;;17.89;81.11;100070.31;2074997;28;20042;-74
2023/08/28 04:46:05;;;;;;;4.13;2.40;;;;;;;17.87;81.17;100067.13;2082301;28;20151;-74
2023/08/28 04:47:07;;;;;;;6.82;2.22;;;;;;;17.87;81.38;100067.13;2082222;28;20153;-79
2023/08/28 04:48:15;;;;;;;9.10;3.13;;;;;;;17.87;81.31;100069.84;2074354;28;20030;-75
2023/08/28 04:49:22;;;;;;;3.85;2.33;;;;;;;17.86;81.37;100071.00;2074520;28;20070;-75
2023/08/28 04:50:26;;;;;;;4.25;2.08;;;;;;;17.83;81.19;100065.09;2066694;28;20145;-76
2023/08/28 04:51:30;;;;;;;3.28;2.55;;;;;;;17.84;81.57;100063.16;2056414;28;20035;-76
2023/08/28 04:52:34;;;;;;;3.85;2.13;;;;;;;17.86;81.51;100062.84;2059818;28;20114;-75
2023/08/28 04:53:39;;;;;;;5.88;2.47;;;;;;;17.85;81.65;100062.03;2090206;28;20056;-75
2023/08/28 04:54:43;;;;;;;5.43;2.28;;;;;;;17.85;81.61;100061.25;2073776;28;20034;-76
2023/08/28 04:55:46;;;;;;;3.35;2.15;;;;;;;17.83;81.50;100062.38;2058898;28;20149;-76
2023/08/28 04:56:51;;;;;;;5.40;2.10;;;;;;;17.84;81.82;100065.88;2057779;28;20158;-75
2023/08/28 04:57:53;;;;;;;6.57;3.90;;;;;;;17.85;81.70;100061.25;2058983;28;20033;-76
2023/08/28 04:58:55;;;;;;;7.03;4.45;;;;;;;17.84;81.63;100063.16;2074621;28;20749;-76
2023/08/28 04:59:57;;;;;;;7.70;3.70;;;;;;;17.85;81.67;100055.81;2074719;28;20035;-76
2023/08/28 05:00:59;;;;;;;5.22;2.67;;;;;;;17.86;81.77;100052.75;2082226;28;20038;-76